createdAt,value
2017-08-21T00:00:41.820Z,1014.89
2017-08-21T00:01:54.411Z,1014.87
2017-08-21T00:03:06.989Z,1014.82
2017-08-21T00:04:19.007Z,1014.88
2017-08-21T00:05:31.672Z,1014.81
2017-08-21T00:06:44.290Z,1014.79
2017-08-21T00:07:56.596Z,1014.82
2017-08-21T00:09:08.905Z,1014.79
2017-08-21T00:10:21.490Z,1014.82
2017-08-21T00:11:33.798Z,1014.82
2017-08-21T00:12:46.142Z,1014.84
2017-08-21T00:13:58.763Z,1014.87
2017-08-21T00:15:10.995Z,1014.84
2017-08-21T00:16:23.604Z,1014.9
2017-08-21T00:17:36.210Z,1014.9
2017-08-21T00:18:48.164Z,1014.89
2017-08-21T00:20:00.743Z,1014.9
2017-08-21T00:21:13.249Z,1014.88
2017-08-21T00:22:25.856Z,1014.93
2017-08-21T00:23:37.857Z,1014.93
2017-08-21T00:24:50.441Z,1014.89
2017-08-21T00:26:03.073Z,1014.9
2017-08-21T00:27:15.632Z,1014.92
2017-08-21T00:28:28.162Z,1014.92
2017-08-21T00:29:40.114Z,1014.97
2017-08-21T00:30:52.430Z,1014.98
2017-08-21T00:32:04.959Z,1014.99
2017-08-21T00:33:17.525Z,1015.01
2017-08-21T00:34:30.089Z,1014.99
2017-08-21T00:35:42.635Z,1014.98
2017-08-21T00:36:54.284Z,1014.99
2017-08-21T00:38:06.899Z,1015
2017-08-21T00:39:19.178Z,1014.99
2017-08-21T00:40:31.784Z,1014.97
2017-08-21T00:41:44.362Z,1014.94
2017-08-21T00:42:56.314Z,1014.98
2017-08-21T00:44:08.866Z,1014.97
2017-08-21T00:45:21.432Z,1014.95
2017-08-21T00:46:34.007Z,1014.96
2017-08-21T00:47:45.994Z,1014.99
2017-08-21T00:48:57.973Z,1014.96
2017-08-21T00:50:10.533Z,1015
2017-08-21T00:51:23.159Z,1015
2017-08-21T00:52:35.465Z,1014.99
2017-08-21T00:53:47.411Z,1014.97
2017-08-21T00:54:59.379Z,1014.99
2017-08-21T00:56:12.059Z,1014.98
2017-08-21T00:57:24.663Z,1014.99
2017-08-21T00:58:37.233Z,1014.98
2017-08-21T00:59:49.824Z,1014.96
2017-08-21T01:01:02.343Z,1014.97
2017-08-21T01:02:14.613Z,1014.98
2017-08-21T01:03:26.886Z,1015
2017-08-21T01:04:39.473Z,1014.96
2017-08-21T01:05:51.193Z,1014.98
2017-08-21T01:07:03.489Z,1014.94
2017-08-21T01:08:16.048Z,1014.97
2017-08-21T01:09:28.356Z,1014.97
2017-08-21T01:10:40.569Z,1014.98
2017-08-21T01:11:52.860Z,1014.96
2017-08-21T01:13:05.420Z,1014.97
2017-08-21T01:14:17.977Z,1014.94
2017-08-21T01:15:30.566Z,1014.94
2017-08-21T01:16:42.838Z,1014.93
2017-08-21T01:17:55.458Z,1014.91
2017-08-21T01:19:08.027Z,1014.98
2017-08-21T01:20:20.648Z,1014.98
2017-08-21T01:21:32.923Z,1014.98
2017-08-21T01:22:45.220Z,1014.95
2017-08-21T01:23:57.835Z,1014.93
2017-08-21T01:25:09.811Z,1014.92
2017-08-21T01:26:22.125Z,1014.92
2017-08-21T01:27:34.098Z,1014.93
2017-08-21T01:28:45.518Z,1014.89
2017-08-21T01:29:58.106Z,1014.9
2017-08-21T01:31:10.413Z,1014.94
2017-08-21T01:32:23.003Z,1014.93
2017-08-21T01:33:35.250Z,1014.95
2017-08-21T01:34:47.152Z,1014.94
2017-08-21T01:35:59.741Z,1014.95
2017-08-21T01:37:12.038Z,1014.94
2017-08-21T01:38:24.564Z,1014.95
2017-08-21T01:39:36.822Z,1014.89
2017-08-21T01:40:49.149Z,1014.9
2017-08-21T01:42:01.706Z,1014.85
2017-08-21T01:43:14.269Z,1014.83
2017-08-21T01:44:26.561Z,1014.86
2017-08-21T01:45:39.114Z,1014.84
2017-08-21T01:46:51.393Z,1014.9
2017-08-21T01:48:03.333Z,1014.84
2017-08-21T01:49:15.980Z,1014.91
2017-08-21T01:50:28.589Z,1014.92
2017-08-21T01:51:41.186Z,1014.87
2017-08-21T01:52:53.430Z,1014.83
2017-08-21T01:54:05.388Z,1014.8
2017-08-21T01:55:17.947Z,1014.8
2017-08-21T01:56:30.491Z,1014.74
2017-08-21T01:57:42.497Z,1014.79
2017-08-21T01:58:54.812Z,1014.82
2017-08-21T02:00:07.104Z,1014.81
2017-08-21T02:01:19.100Z,1014.76
2017-08-21T02:02:31.670Z,1014.71
2017-08-21T02:03:44.242Z,1014.7
2017-08-21T02:04:56.840Z,1014.7
2017-08-21T02:06:09.498Z,1014.65
2017-08-21T02:07:21.447Z,1014.71
2017-08-21T02:08:33.706Z,1014.7
2017-08-21T02:09:45.936Z,1014.72
2017-08-21T02:10:58.521Z,1014.73
2017-08-21T02:12:10.514Z,1014.71
2017-08-21T02:13:22.849Z,1014.72
2017-08-21T02:14:35.120Z,1014.74
2017-08-21T02:15:47.649Z,1014.67
2017-08-21T02:16:59.944Z,1014.73
2017-08-21T02:18:12.490Z,1014.67
2017-08-21T02:19:25.058Z,1014.73
2017-08-21T02:20:37.292Z,1014.74
2017-08-21T02:21:49.593Z,1014.73
2017-08-21T02:23:02.147Z,1014.75
2017-08-21T02:24:14.742Z,1014.73
2017-08-21T02:25:27.320Z,1014.77
2017-08-21T02:26:39.616Z,1014.74
2017-08-21T02:27:51.916Z,1014.75
2017-08-21T02:29:04.531Z,1014.73
2017-08-21T02:30:16.833Z,1014.74
2017-08-21T02:31:29.098Z,1014.79
2017-08-21T02:32:41.338Z,1014.78
2017-08-21T02:33:53.288Z,1014.77
2017-08-21T02:35:05.577Z,1014.77
2017-08-21T02:36:17.559Z,1014.77
2017-08-21T02:37:29.863Z,1014.78
2017-08-21T02:38:42.107Z,1014.76
2017-08-21T02:39:54.110Z,1014.76
2017-08-21T02:41:06.374Z,1014.75
2017-08-21T02:42:19.245Z,1014.74
2017-08-21T02:43:31.778Z,1014.77
2017-08-21T02:44:44.041Z,1014.8
2017-08-21T02:45:56.395Z,1014.8
2017-08-21T02:47:09.013Z,1014.78
2017-08-21T02:48:21.632Z,1014.82
2017-08-21T02:49:33.631Z,1014.82
2017-08-21T02:50:45.858Z,1014.82
2017-08-21T02:51:58.181Z,1014.82
2017-08-21T02:53:10.763Z,1014.85
2017-08-21T02:54:23.032Z,1014.82
2017-08-21T02:55:35.711Z,1014.8
2017-08-21T02:56:48.317Z,1014.8
2017-08-21T02:58:00.920Z,1014.8
2017-08-21T02:59:13.193Z,1014.81
2017-08-21T03:00:25.744Z,1014.83
2017-08-21T03:01:38.332Z,1014.8
2017-08-21T03:02:50.301Z,1014.82
2017-08-21T03:04:02.686Z,1014.8
2017-08-21T03:05:14.981Z,1014.81
2017-08-21T03:06:27.540Z,1014.82
2017-08-21T03:07:39.838Z,1014.85
2017-08-21T03:08:52.430Z,1014.83
2017-08-21T03:10:04.764Z,1014.82
2017-08-21T03:11:17.304Z,1014.8
2017-08-21T03:12:29.921Z,1014.83
2017-08-21T03:13:42.550Z,1014.84
2017-08-21T03:14:55.409Z,1014.86
2017-08-21T03:16:07.906Z,1014.85
2017-08-21T03:17:20.473Z,1014.82
2017-08-21T03:18:33.072Z,1014.83
2017-08-21T03:19:45.318Z,1014.85
2017-08-21T03:20:57.637Z,1014.84
2017-08-21T03:22:10.165Z,1014.81
2017-08-21T03:23:22.778Z,1014.82
2017-08-21T03:24:35.080Z,1014.83
2017-08-21T03:25:47.620Z,1014.79
2017-08-21T03:27:00.177Z,1014.78
2017-08-21T03:28:12.779Z,1014.75
2017-08-21T03:29:25.368Z,1014.79
2017-08-21T03:30:37.971Z,1014.74
2017-08-21T03:31:50.550Z,1014.78
2017-08-21T03:33:02.845Z,1014.72
2017-08-21T03:34:15.365Z,1014.76
2017-08-21T03:35:27.661Z,1014.72
2017-08-21T03:36:40.263Z,1014.8
2017-08-21T03:37:52.252Z,1014.77
2017-08-21T03:39:04.537Z,1014.78
2017-08-21T03:40:16.816Z,1014.77
2017-08-21T03:41:29.392Z,1014.78
2017-08-21T03:42:41.383Z,1014.78
2017-08-21T03:43:53.732Z,1014.79
2017-08-21T03:45:05.738Z,1014.8
2017-08-21T03:46:18.326Z,1014.77
2017-08-21T03:47:30.600Z,1014.81
2017-08-21T03:48:42.821Z,1014.77
2017-08-21T03:49:54.835Z,1014.77
2017-08-21T03:51:07.115Z,1014.76
2017-08-21T03:52:19.449Z,1014.77
2017-08-21T03:53:31.756Z,1014.8
2017-08-21T03:54:44.383Z,1014.78
2017-08-21T03:55:56.922Z,1014.78
2017-08-21T03:57:09.505Z,1014.78
2017-08-21T03:58:21.789Z,1014.82
2017-08-21T03:59:34.405Z,1014.83
2017-08-21T04:00:47.027Z,1014.86
2017-08-21T04:01:59.596Z,1014.84
2017-08-21T04:03:11.861Z,1014.82
2017-08-21T04:04:23.859Z,1014.81
2017-08-21T04:05:36.176Z,1014.81
2017-08-21T04:06:48.490Z,1014.82
2017-08-21T04:08:01.035Z,1014.79
2017-08-21T04:09:13.055Z,1014.8
2017-08-21T04:10:25.040Z,1014.82
2017-08-21T04:11:36.704Z,1014.81
2017-08-21T04:12:48.680Z,1014.81
2017-08-21T04:14:00.982Z,1014.86
2017-08-21T04:15:12.994Z,1014.81
2017-08-21T04:16:25.599Z,1014.82
2017-08-21T04:17:37.608Z,1014.83
2017-08-21T04:18:50.239Z,1014.81
2017-08-21T04:20:02.527Z,1014.84
2017-08-21T04:21:14.524Z,1014.86
2017-08-21T04:22:26.791Z,1014.92
2017-08-21T04:23:38.718Z,1014.89
2017-08-21T04:24:50.943Z,1014.9
2017-08-21T04:26:03.301Z,1014.91
2017-08-21T04:27:15.276Z,1014.89
2017-08-21T04:28:27.876Z,1014.91
2017-08-21T04:29:40.500Z,1014.92
2017-08-21T04:30:53.012Z,1014.94
2017-08-21T04:32:05.555Z,1014.93
2017-08-21T04:33:18.169Z,1014.95
2017-08-21T04:34:30.423Z,1015
2017-08-21T04:35:43.040Z,1015
2017-08-21T04:36:55.625Z,1015.01
2017-08-21T04:38:07.985Z,1015.02
2017-08-21T04:39:20.236Z,1015.07
2017-08-21T04:40:32.818Z,1015.03
2017-08-21T04:41:45.394Z,1015.05
2017-08-21T04:42:57.720Z,1015.04
2017-08-21T04:44:10.313Z,1015.03
2017-08-21T04:45:22.858Z,1015.04
2017-08-21T04:46:35.172Z,1015
2017-08-21T04:47:47.477Z,1015.01
2017-08-21T04:49:00.080Z,1015.03
2017-08-21T04:50:12.690Z,1015.02
2017-08-21T04:51:24.910Z,1015.04
2017-08-21T04:52:37.482Z,1015.07
2017-08-21T04:53:50.012Z,1015.11
2017-08-21T04:55:02.373Z,1015.07
2017-08-21T04:56:14.999Z,1015.13
2017-08-21T04:57:27.581Z,1015.08
2017-08-21T04:58:39.838Z,1015.08
2017-08-21T04:59:52.432Z,1015.13
2017-08-21T05:01:04.087Z,1015.17
2017-08-21T05:02:16.414Z,1015.14
2017-08-21T05:03:28.677Z,1015.12
2017-08-21T05:04:40.939Z,1015.12
2017-08-21T05:05:53.574Z,1015.11
2017-08-21T05:07:05.902Z,1015.15
2017-08-21T05:08:18.467Z,1015.12
2017-08-21T05:09:31.331Z,1015.17
2017-08-21T05:10:43.328Z,1015.15
2017-08-21T05:11:55.955Z,1015.12
2017-08-21T05:13:08.189Z,1015.11
2017-08-21T05:14:20.809Z,1015.12
2017-08-21T05:15:33.434Z,1015.16
2017-08-21T05:16:45.126Z,1015.21
2017-08-21T05:17:57.370Z,1015.12
2017-08-21T05:19:09.597Z,1015.19
2017-08-21T05:20:21.581Z,1015.2
2017-08-21T05:21:33.554Z,1015.16
2017-08-21T05:22:45.776Z,1015.14
2017-08-21T05:23:58.348Z,1015.14
2017-08-21T05:25:10.315Z,1015.21
2017-08-21T05:26:22.954Z,1015.18
2017-08-21T05:27:35.555Z,1015.25
2017-08-21T05:28:47.882Z,1015.26
2017-08-21T05:30:00.446Z,1015.21
2017-08-21T05:31:12.730Z,1015.26
2017-08-21T05:32:25.039Z,1015.22
2017-08-21T05:33:37.022Z,1015.17
2017-08-21T05:34:49.620Z,1015.18
2017-08-21T05:36:01.610Z,1015.23
2017-08-21T05:37:14.213Z,1015.2
2017-08-21T05:38:26.842Z,1015.22
2017-08-21T05:39:38.497Z,1015.28
2017-08-21T05:40:50.474Z,1015.25
2017-08-21T05:42:02.678Z,1015.26
2017-08-21T05:43:15.282Z,1015.31
2017-08-21T05:44:27.893Z,1015.3
2017-08-21T05:45:40.496Z,1015.27
2017-08-21T05:46:53.034Z,1015.38
2017-08-21T05:48:05.593Z,1015.31
2017-08-21T05:49:18.192Z,1015.34
2017-08-21T05:50:30.779Z,1015.31
2017-08-21T05:51:43.041Z,1015.35
2017-08-21T05:52:54.995Z,1015.4
2017-08-21T05:54:07.620Z,1015.39
2017-08-21T05:55:19.903Z,1015.35
2017-08-21T05:56:31.884Z,1015.41
2017-08-21T05:57:44.695Z,1015.39
2017-08-21T05:58:56.891Z,1015.4
2017-08-21T06:00:09.505Z,1015.45
2017-08-21T06:01:21.484Z,1015.41
2017-08-21T06:02:34.014Z,1015.43
2017-08-21T06:03:46.310Z,1015.39
2017-08-21T06:04:58.923Z,1015.48
2017-08-21T06:06:11.216Z,1015.51
2017-08-21T06:07:23.772Z,1015.5
2017-08-21T06:08:35.709Z,1015.51
2017-08-21T06:09:48.327Z,1015.41
2017-08-21T06:11:00.273Z,1015.43
2017-08-21T06:12:12.867Z,1015.44
2017-08-21T06:13:25.496Z,1015.5
2017-08-21T06:14:38.045Z,1015.45
2017-08-21T06:15:50.341Z,1015.43
2017-08-21T06:17:02.652Z,1015.45
2017-08-21T06:18:14.933Z,1015.53
2017-08-21T06:19:27.583Z,1015.46
2017-08-21T06:20:39.253Z,1015.48
2017-08-21T06:21:51.808Z,1015.47
2017-08-21T06:23:04.144Z,1015.49
2017-08-21T06:24:16.680Z,1015.57
2017-08-21T06:25:29.237Z,1015.54
2017-08-21T06:26:41.848Z,1015.58
2017-08-21T06:27:54.420Z,1015.54
2017-08-21T06:29:06.993Z,1015.49
2017-08-21T06:30:19.048Z,1015.5
2017-08-21T06:31:31.677Z,1015.47
2017-08-21T06:32:43.944Z,1015.57
2017-08-21T06:33:55.931Z,1015.55
2017-08-21T06:35:07.593Z,1015.61
2017-08-21T06:36:19.617Z,1015.66
2017-08-21T06:37:31.876Z,1015.61
2017-08-21T06:38:44.429Z,1015.69
2017-08-21T06:39:56.376Z,1015.61
2017-08-21T06:41:09.267Z,1015.6
2017-08-21T06:42:21.581Z,1015.62
2017-08-21T06:43:33.557Z,1015.74
2017-08-21T06:44:45.854Z,1015.77
2017-08-21T06:45:58.523Z,1015.68
2017-08-21T06:47:10.470Z,1015.69
2017-08-21T06:48:22.484Z,1015.7
2017-08-21T06:49:35.048Z,1015.77
2017-08-21T06:50:47.679Z,1015.75
2017-08-21T06:52:00.039Z,1015.69
2017-08-21T06:53:12.620Z,1015.78
2017-08-21T06:54:25.283Z,1015.66
2017-08-21T06:55:37.867Z,1015.68
2017-08-21T06:56:50.161Z,1015.83
2017-08-21T06:58:02.791Z,1015.56
2017-08-21T06:59:15.352Z,1015.65
2017-08-21T07:00:27.926Z,1015.65
2017-08-21T07:01:39.958Z,1015.76
2017-08-21T07:02:52.777Z,1015.7
2017-08-21T07:04:05.372Z,1015.71
2017-08-21T07:05:17.394Z,1015.65
2017-08-21T07:06:29.989Z,1015.68
2017-08-21T07:07:42.503Z,1015.67
2017-08-21T07:08:54.170Z,1015.64
2017-08-21T07:10:06.802Z,1015.64
2017-08-21T07:11:19.362Z,1015.67
2017-08-21T07:12:31.600Z,1015.77
2017-08-21T07:13:43.795Z,1015.76
2017-08-21T07:14:55.809Z,1015.59
2017-08-21T07:16:07.763Z,1015.82
2017-08-21T07:17:20.431Z,1015.74
2017-08-21T07:18:32.781Z,1015.65
2017-08-21T07:19:45.311Z,1015.76
2017-08-21T07:20:57.296Z,1015.72
2017-08-21T07:22:09.565Z,1015.84
2017-08-21T07:23:21.560Z,1015.82
2017-08-21T07:24:33.856Z,1015.73
2017-08-21T07:25:46.153Z,1015.78
2017-08-21T07:26:58.697Z,1015.9
2017-08-21T07:28:11.351Z,1015.75
2017-08-21T07:29:24.000Z,1015.84
2017-08-21T07:30:36.634Z,1015.79
2017-08-21T07:31:48.989Z,1015.88
2017-08-21T07:33:01.336Z,1015.85
2017-08-21T07:34:13.927Z,1015.78
2017-08-21T07:35:26.542Z,1015.8
2017-08-21T07:36:39.063Z,1015.77
2017-08-21T07:37:51.406Z,1015.74
2017-08-21T07:39:03.965Z,1015.91
2017-08-21T07:40:16.284Z,1015.9
2017-08-21T07:41:28.931Z,1015.95
2017-08-21T07:42:41.546Z,1015.97
2017-08-21T07:43:53.511Z,1015.79
2017-08-21T07:45:06.096Z,1015.84
2017-08-21T07:46:18.028Z,1015.82
2017-08-21T07:47:30.278Z,1015.9
2017-08-21T07:48:42.318Z,1015.84
2017-08-21T07:49:54.540Z,1015.8
2017-08-21T07:51:07.103Z,1015.78
2017-08-21T07:52:19.723Z,1015.85
2017-08-21T07:53:32.276Z,1015.97
2017-08-21T07:54:44.889Z,1015.87
2017-08-21T07:55:57.520Z,1015.79
2017-08-21T07:57:09.738Z,1015.93
2017-08-21T07:58:22.090Z,1015.79
2017-08-21T07:59:34.359Z,1015.86
2017-08-21T08:00:46.701Z,1015.8
2017-08-21T08:01:59.352Z,1015.7
2017-08-21T08:03:11.598Z,1015.74
2017-08-21T08:04:24.193Z,1015.9
2017-08-21T08:05:36.483Z,1015.77
2017-08-21T08:06:48.810Z,1015.8
2017-08-21T08:08:01.062Z,1015.8
2017-08-21T08:09:13.375Z,1015.89
2017-08-21T08:10:25.965Z,1015.84
2017-08-21T08:11:38.497Z,1015.91
2017-08-21T08:12:50.133Z,1015.69
2017-08-21T08:14:02.690Z,1015.82
2017-08-21T08:15:15.277Z,1015.74
2017-08-21T08:16:27.855Z,1015.65
2017-08-21T08:17:40.512Z,1015.74
2017-08-21T08:18:53.089Z,1015.66
2017-08-21T08:20:05.360Z,1015.82
2017-08-21T08:21:17.956Z,1015.74
2017-08-21T08:22:29.625Z,1015.65
2017-08-21T08:23:41.943Z,1015.73
2017-08-21T08:24:54.569Z,1015.81
2017-08-21T08:26:06.851Z,1015.76
2017-08-21T08:27:19.488Z,1015.77
2017-08-21T08:28:31.803Z,1015.69
2017-08-21T08:29:44.101Z,1015.82
2017-08-21T08:30:56.465Z,1015.65
2017-08-21T08:32:08.437Z,1015.74
2017-08-21T08:33:20.339Z,1015.7
2017-08-21T08:34:31.982Z,1015.73
2017-08-21T08:35:44.531Z,1015.71
2017-08-21T08:36:57.135Z,1015.74
2017-08-21T08:38:09.155Z,1015.74
2017-08-21T08:39:21.743Z,1015.75
2017-08-21T08:40:34.026Z,1015.69
2017-08-21T08:41:46.594Z,1015.61
2017-08-21T08:42:59.173Z,1015.75
2017-08-21T08:44:11.484Z,1015.63
2017-08-21T08:45:23.462Z,1015.83
2017-08-21T08:46:36.088Z,1015.81
2017-08-21T08:47:48.369Z,1015.77
2017-08-21T08:49:00.010Z,1015.9
2017-08-21T08:50:12.002Z,1015.75
2017-08-21T08:51:24.273Z,1015.68
2017-08-21T08:52:36.870Z,1015.87
2017-08-21T08:53:48.861Z,1015.84
2017-08-21T08:55:00.945Z,1015.71
2017-08-21T08:56:13.211Z,1015.84
2017-08-21T08:57:25.821Z,1015.9
2017-08-21T08:58:38.389Z,1015.8
2017-08-21T08:59:50.385Z,1015.96
2017-08-21T09:01:02.756Z,1015.93
2017-08-21T09:02:15.316Z,1016.02
2017-08-21T09:03:27.648Z,1015.99
2017-08-21T09:04:40.170Z,1015.99
2017-08-21T09:05:52.440Z,1015.96
2017-08-21T09:07:04.197Z,1015.94
2017-08-21T09:08:16.507Z,1015.95
2017-08-21T09:09:28.750Z,1015.89
2017-08-21T09:10:40.703Z,1015.62
2017-08-21T09:11:52.994Z,1015.64
2017-08-21T09:13:05.651Z,1015.57
2017-08-21T09:14:18.270Z,1015.54
2017-08-21T09:15:30.560Z,1015.6
2017-08-21T09:16:42.837Z,1015.6
2017-08-21T09:17:55.453Z,1015.61
2017-08-21T09:19:08.050Z,1015.62
2017-08-21T09:20:20.312Z,1015.62
2017-08-21T09:21:32.857Z,1015.61
2017-08-21T09:22:45.159Z,1015.82
2017-08-21T09:23:57.750Z,1015.77
2017-08-21T09:25:10.048Z,1015.63
2017-08-21T09:26:22.321Z,1015.72
2017-08-21T09:27:34.590Z,1015.81
2017-08-21T09:28:47.133Z,1015.91
2017-08-21T09:29:59.758Z,1015.88
2017-08-21T09:31:12.373Z,1015.84
2017-08-21T09:32:24.954Z,1015.84
2017-08-21T09:33:37.191Z,1015.67
2017-08-21T09:34:49.144Z,1015.75
2017-08-21T09:36:01.764Z,1015.68
2017-08-21T09:37:14.086Z,1015.58
2017-08-21T09:38:26.720Z,1015.63
2017-08-21T09:39:38.976Z,1015.53
2017-08-21T09:40:51.563Z,1015.61
2017-08-21T09:42:03.881Z,1015.58
2017-08-21T09:43:16.105Z,1015.79
2017-08-21T09:44:28.406Z,1015.85
2017-08-21T09:45:40.749Z,1015.83
2017-08-21T09:46:53.317Z,1015.88
2017-08-21T09:48:05.935Z,1015.78
2017-08-21T09:49:18.182Z,1015.72
2017-08-21T09:50:30.476Z,1015.66
2017-08-21T09:51:42.485Z,1015.64
2017-08-21T09:52:55.095Z,1015.67
2017-08-21T09:54:07.032Z,1015.69
2017-08-21T09:55:19.337Z,1015.72
2017-08-21T09:56:31.909Z,1015.89
2017-08-21T09:57:44.538Z,1015.74
2017-08-21T09:58:57.148Z,1015.7
2017-08-21T10:00:09.099Z,1015.61
2017-08-21T10:01:21.759Z,1015.65
2017-08-21T10:02:34.386Z,1015.59
2017-08-21T10:03:46.987Z,1015.57
2017-08-21T10:04:59.307Z,1015.56
2017-08-21T10:06:11.548Z,1015.65
2017-08-21T10:07:23.528Z,1015.61
2017-08-21T10:08:36.130Z,1015.56
2017-08-21T10:09:48.408Z,1015.61
2017-08-21T10:11:01.030Z,1015.49
2017-08-21T10:12:13.588Z,1015.44
2017-08-21T10:13:25.850Z,1015.53
2017-08-21T10:14:37.542Z,1015.64
2017-08-21T10:15:49.860Z,1015.62
2017-08-21T10:17:02.163Z,1015.56
2017-08-21T10:18:14.722Z,1015.48
2017-08-21T10:19:26.727Z,1015.44
2017-08-21T10:20:39.319Z,1015.38
2017-08-21T10:21:51.599Z,1015.26
2017-08-21T10:23:03.542Z,1015.3
2017-08-21T10:24:15.835Z,1015.36
2017-08-21T10:25:28.108Z,1015.32
2017-08-21T10:26:40.405Z,1015.24
2017-08-21T10:27:52.995Z,1015.24
2017-08-21T10:29:05.567Z,1015.31
2017-08-21T10:30:18.128Z,1015.38
2017-08-21T10:31:30.332Z,1015.5
2017-08-21T10:32:42.317Z,1015.5
2017-08-21T10:33:54.321Z,1015.5
2017-08-21T10:35:06.674Z,1015.41
2017-08-21T10:36:19.268Z,1015.29
2017-08-21T10:37:31.257Z,1015.24
2017-08-21T10:38:43.509Z,1015.24
2017-08-21T10:39:56.130Z,1015.18
2017-08-21T10:41:08.726Z,1015.33
2017-08-21T10:42:21.357Z,1015.34
2017-08-21T10:43:33.666Z,1015.33
2017-08-21T10:44:45.672Z,1015.39
2017-08-21T10:45:57.942Z,1015.3
2017-08-21T10:47:09.898Z,1015.37
2017-08-21T10:48:22.436Z,1015.45
2017-08-21T10:49:34.696Z,1015.4
2017-08-21T10:50:47.273Z,1015.41
2017-08-21T10:51:59.635Z,1015.49
2017-08-21T10:53:11.284Z,1015.54
2017-08-21T10:54:23.903Z,1015.6
2017-08-21T10:55:36.470Z,1015.66
2017-08-21T10:56:48.817Z,1015.5
2017-08-21T10:58:01.113Z,1015.44
2017-08-21T10:59:13.761Z,1015.51
2017-08-21T11:00:26.057Z,1015.55
2017-08-21T11:01:38.601Z,1015.43
2017-08-21T11:02:51.181Z,1015.27
2017-08-21T11:04:03.494Z,1015.21
2017-08-21T11:05:15.189Z,1015.17
2017-08-21T11:06:27.788Z,1015.17
2017-08-21T11:07:40.417Z,1015.2
2017-08-21T11:08:53.012Z,1015.23
2017-08-21T11:10:05.339Z,1015.25
2017-08-21T11:11:17.311Z,1015.3
2017-08-21T11:12:29.914Z,1015.36
2017-08-21T11:13:42.499Z,1015.4
2017-08-21T11:14:55.109Z,1015.44
2017-08-21T11:16:07.537Z,1015.43
2017-08-21T11:17:19.790Z,1015.48
2017-08-21T11:18:32.318Z,1015.51
2017-08-21T11:19:44.592Z,1015.55
2017-08-21T11:20:56.918Z,1015.45
2017-08-21T11:22:09.264Z,1015.4
2017-08-21T11:23:21.831Z,1015.32
2017-08-21T11:24:34.475Z,1015.27
2017-08-21T11:25:47.120Z,1015.29
2017-08-21T11:26:59.765Z,1015.2
2017-08-21T11:28:11.757Z,1015.14
2017-08-21T11:29:24.061Z,1015.13
2017-08-21T11:30:36.318Z,1015.09
2017-08-21T11:31:48.672Z,1015.01
2017-08-21T11:33:00.961Z,1015.05
2017-08-21T11:34:13.559Z,1015.08
2017-08-21T11:35:25.833Z,1015.07
2017-08-21T11:36:37.527Z,1015.15
2017-08-21T11:37:49.532Z,1015.21
2017-08-21T11:39:02.160Z,1015.26
2017-08-21T11:40:14.476Z,1015.3
2017-08-21T11:41:27.068Z,1015.12
2017-08-21T11:42:39.385Z,1015.15
2017-08-21T11:43:51.733Z,1015.12
2017-08-21T11:45:04.031Z,1015.15
2017-08-21T11:46:16.291Z,1014.94
2017-08-21T11:47:28.605Z,1014.97
2017-08-21T11:48:40.900Z,1014.92
2017-08-21T11:49:53.210Z,1014.87
2017-08-21T11:51:05.491Z,1014.89
2017-08-21T11:52:17.849Z,1014.93
2017-08-21T11:53:30.486Z,1014.9
2017-08-21T11:54:42.854Z,1014.91
2017-08-21T11:55:55.486Z,1014.99
2017-08-21T11:57:08.153Z,1015.09
2017-08-21T11:58:20.460Z,1015.25
2017-08-21T11:59:33.070Z,1015.27
2017-08-21T12:00:45.388Z,1015.16
2017-08-21T12:01:57.096Z,1014.98
2017-08-21T12:03:09.402Z,1014.96
2017-08-21T12:04:22.023Z,1015.1
2017-08-21T12:05:34.029Z,1015.13
2017-08-21T12:06:46.635Z,1015.19
2017-08-21T12:07:58.907Z,1015.26
2017-08-21T12:09:11.469Z,1015.28
2017-08-21T12:10:24.051Z,1015.25
2017-08-21T12:11:36.022Z,1015.2
2017-08-21T12:12:48.396Z,1015.22
2017-08-21T12:14:01.009Z,1015.26
2017-08-21T12:15:13.333Z,1015.11
2017-08-21T12:16:25.650Z,1014.88
2017-08-21T12:17:38.222Z,1014.82
2017-08-21T12:18:50.527Z,1014.75
2017-08-21T12:20:03.068Z,1014.81
2017-08-21T12:21:15.700Z,1014.91
2017-08-21T12:22:27.621Z,1014.98
2017-08-21T12:23:39.852Z,1015.11
2017-08-21T12:24:52.447Z,1015
2017-08-21T12:26:05.020Z,1015.11
2017-08-21T12:27:17.296Z,1014.94
2017-08-21T12:28:29.918Z,1014.97
2017-08-21T12:29:42.494Z,1014.89
2017-08-21T12:30:54.784Z,1014.91
2017-08-21T12:32:07.069Z,1014.94
2017-08-21T12:33:19.043Z,1014.96
2017-08-21T12:34:31.589Z,1015.02
2017-08-21T12:35:43.574Z,1014.95
2017-08-21T12:36:55.854Z,1014.95
2017-08-21T12:38:07.839Z,1014.87
2017-08-21T12:39:20.090Z,1014.9
2017-08-21T12:40:32.418Z,1014.94
2017-08-21T12:41:45.484Z,1014.98
2017-08-21T12:42:58.154Z,1015.03
2017-08-21T12:44:10.428Z,1015.08
2017-08-21T12:45:22.395Z,1015
2017-08-21T12:46:35.034Z,1014.96
2017-08-21T12:47:47.312Z,1014.98
2017-08-21T12:48:59.959Z,1014.98
2017-08-21T12:50:11.932Z,1015.03
2017-08-21T12:51:23.596Z,1015.04
2017-08-21T12:52:35.612Z,1014.97
2017-08-21T12:53:47.908Z,1014.95
2017-08-21T12:55:00.441Z,1015
2017-08-21T12:56:12.413Z,1014.94
2017-08-21T12:57:24.733Z,1014.89
2017-08-21T12:58:37.276Z,1014.9
2017-08-21T12:59:48.647Z,1014.85
2017-08-21T13:01:00.928Z,1014.83
2017-08-21T13:02:12.896Z,1014.74
2017-08-21T13:03:25.207Z,1014.68
2017-08-21T13:04:37.476Z,1014.64
2017-08-21T13:05:49.203Z,1014.62
2017-08-21T13:07:01.457Z,1014.58
2017-08-21T13:08:14.063Z,1014.59
2017-08-21T13:09:26.298Z,1014.6
2017-08-21T13:10:38.918Z,1014.68
2017-08-21T13:11:50.589Z,1014.65
2017-08-21T13:13:02.894Z,1014.68
2017-08-21T13:14:15.191Z,1014.62
2017-08-21T13:15:27.473Z,1014.7
2017-08-21T13:16:39.489Z,1014.74
2017-08-21T13:17:51.745Z,1014.63
2017-08-21T13:19:04.293Z,1014.63
2017-08-21T13:20:16.879Z,1014.57
2017-08-21T13:21:29.474Z,1014.67
2017-08-21T13:22:42.084Z,1014.6
2017-08-21T13:23:54.134Z,1014.58
2017-08-21T13:25:06.751Z,1014.5
2017-08-21T13:26:19.040Z,1014.44
2017-08-21T13:27:31.598Z,1014.51
2017-08-21T13:28:44.192Z,1014.57
2017-08-21T13:29:56.445Z,1014.52
2017-08-21T13:31:08.434Z,1014.43
2017-08-21T13:32:20.776Z,1014.46
2017-08-21T13:33:32.727Z,1014.45
2017-08-21T13:34:45.085Z,1014.47
2017-08-21T13:35:56.423Z,1014.37
2017-08-21T13:37:08.114Z,1014.42
2017-08-21T13:38:20.407Z,1014.37
2017-08-21T13:39:32.951Z,1014.41
2017-08-21T13:40:45.230Z,1014.53
2017-08-21T13:41:57.464Z,1014.54
2017-08-21T13:43:09.468Z,1014.69
2017-08-21T13:44:22.056Z,1014.6
2017-08-21T13:45:34.459Z,1014.68
2017-08-21T13:46:46.849Z,1014.69
2017-08-21T13:47:58.855Z,1014.68
2017-08-21T13:49:11.516Z,1014.62
2017-08-21T13:50:24.211Z,1014.7
2017-08-21T13:51:36.755Z,1014.71
2017-08-21T13:52:49.033Z,1014.68
2017-08-21T13:54:01.395Z,1014.63
2017-08-21T13:55:14.022Z,1014.64
2017-08-21T13:56:26.025Z,1014.7
2017-08-21T13:57:38.033Z,1014.68
2017-08-21T13:58:49.135Z,1014.54
2017-08-21T14:00:01.387Z,1014.58
2017-08-21T14:01:13.996Z,1014.48
2017-08-21T14:02:26.618Z,1014.37
2017-08-21T14:03:38.911Z,1014.41
2017-08-21T14:04:50.945Z,1014.44
2017-08-21T14:06:03.529Z,1014.34
2017-08-21T14:07:15.664Z,1014.37
2017-08-21T14:08:28.059Z,1014.4
2017-08-21T14:09:40.409Z,1014.4
2017-08-21T14:10:53.001Z,1014.42
2017-08-21T14:12:04.983Z,1014.41
2017-08-21T14:13:17.553Z,1014.4
2017-08-21T14:14:29.895Z,1014.46
2017-08-21T14:15:41.905Z,1014.55
2017-08-21T14:16:54.227Z,1014.58
2017-08-21T14:18:06.491Z,1014.53
2017-08-21T14:19:18.765Z,1014.49
2017-08-21T14:20:31.119Z,1014.47
2017-08-21T14:21:42.773Z,1014.46
2017-08-21T14:22:55.320Z,1014.49
2017-08-21T14:24:07.617Z,1014.59
2017-08-21T14:25:19.876Z,1014.5
2017-08-21T14:26:32.181Z,1014.52
2017-08-21T14:27:44.499Z,1014.68
2017-08-21T14:28:56.772Z,1014.69
2017-08-21T14:30:09.343Z,1014.75
2017-08-21T14:31:21.037Z,1014.78
2017-08-21T14:32:33.009Z,1014.79
2017-08-21T14:33:44.977Z,1014.71
2017-08-21T14:34:57.274Z,1014.79
2017-08-21T14:36:09.221Z,1014.8
2017-08-21T14:37:21.509Z,1014.82
2017-08-21T14:38:34.414Z,1014.75
2017-08-21T14:39:46.693Z,1014.78